Terminal Aerodrome Forecast
Issued by NWS Wilmington, NC

Home | Current Version | Previous Version | Text Only | Print | Product List | Glossary On
Versions: 1 2 3 4 5 6 7 8 9 10 11 12 13 14 15 16 17 18 19 20 21 22 23 24 25 26 27 28 29 30 31 32
000
FTUS42 KILM 241700 CCA
TAFLBT
TAF COR
KLBT 241751Z 2418/2518 25011G18KT P6SM VCTS SCT040CB SCT100
      TEMPO 2419/2423 VRB20KT 3SM +TSRA BKN020CB
     FM250200 26006KT P6SM SHRA SCT050 BKN100
     FM250400 25003KT P6SM VCSH SCT050 SCT100 BKN250
     FM250700 VRB03KT 4SM BR FEW040 SCT090
     FM251400 03005KT P6SM VCSH SCT050 SCT100=

USA.gov is the U.S. government's official web portal to all federal, state and local government web resources and services.